Level Plains, Alabama
Current Conditions -  °F | °C
As of 10:58 PM on Tuesday 25 Nov 2014 (Local Time) from KOZR Reporting Station
Light Rain Light Rain  
Wind Chill: 49°   Ceiling: 8500
Heat Index: 49°   Visibility: 10mi
Dew Point: 47°   Wind: 3mph
Humidity: 92%   Direction: 280°W
Pressure: 30.05"   Gusts: NA
Location:  31.2347°N, 85.7586°W
Report Text: KOZR 260458Z AUTO 28003KT 10SM -RA BKN085 10/08 A3005 RMK AO2 RAB0356E0411B0436DZB0411E0417B0434E0436 SLP179 P0002 T00950083
Loading
Personal Weather Stations






























Interactive Weather Map New forecast layout! Learn more

10-Day Weather Forecast

Advertisements
Track Severe Weather on mobile